Terminal Aerodrome Forecast
Issued by NWS

Home | Current Version | Previous Version | Text Only | Print | Product List | Glossary On
Versions: 1 2 3 4 5 6 7 8 9 10 11 12 13 14 15 16 17 18 19 20 21 22 23 24 25
000
FTUS43 KDLH 251700
TAFHYR
TAF
KHYR 251739Z 2518/2618 24010KT P6SM -SN OVC012
     FM252200 30004KT 6SM -SN OVC009
     FM261500 35010KT P6SM -SN OVC018=

USA.gov is the U.S. government's official web portal to all federal, state and local government web resources and services.